»·PEaware :: N815M KSAC-KTSP

N815M :: KSAC-KTSP

FLIGHT INFORMATION

Flight Status: Arrived
Operator: Privately registered:
United States
More flights under this callsign
Pilot: Robert C. (30425)
Aircraft: BEECH AIRCRAFT DEBONAIR BONANZA
(BE33)
More flights by this aircraft type
Origin: KSAC Sacramento Executive
United States
Destination: KTSP Tehachapi Mun
United States
More flights between these airports :: More routes between these airports
Route: +SAC V23 LIN HYP CZQ VIS EHF KTSP
File this flight plan on PilotEdge
Remarks:
Altitude:
(Current/Filed)
7,500ft
Speed:
(Current/Filed)
150kts
Departed: 01-Aug-20 07:57 PM
Arrived: 01-Aug-20 09:42 PM
Distance/Time
Traveled:
250nm/1:45
Distance/Time
To Go:
Arrived

Flight Plot

Page will automatically refresh every two minutes.


Map Options




Map Legend


Flown Route
Filed Route
Departure Airport
Arrival Airport
Navaid (VOR, NDB)
Fix

Horizontal Profiles

Position Reports

Time Latitude Longitude Heading Altitude Ground
Speed
01-Aug-20 19:44 38.520094 -121.492912 235 24ft 0kts
01-Aug-20 19:46 38.520094 -121.492912 235 24ft 0kts
01-Aug-20 19:47 38.520094 -121.492912 235 24ft 0kts
01-Aug-20 19:48 38.520094 -121.492912 235 24ft 0kts
01-Aug-20 19:49 38.520094 -121.492912 235 24ft 0kts
01-Aug-20 19:50 38.519995 -121.493068 225 24ft 0kts
01-Aug-20 19:51 38.519995 -121.493068 225 24ft 0kts
01-Aug-20 19:52 38.519995 -121.493068 225 24ft 0kts
01-Aug-20 19:53 38.519579 -121.493165 108 24ft 1kts
01-Aug-20 19:54 38.519249 -121.490979 100 24ft 6kts
01-Aug-20 19:55 38.519167 -121.490425 100 24ft 0kts
01-Aug-20 19:56 38.518659 -121.489547 211 23ft 5kts
01-Aug-20 19:57 38.507135 -121.498699 211 353ft 71kts
01-Aug-20 19:58 38.491121 -121.513145 209 1149ft 87kts
01-Aug-20 19:59 38.464491 -121.533245 210 1865ft 125kts
01-Aug-20 20:00 38.433864 -121.557361 208 2672ft 132kts
01-Aug-20 20:00 38.411137 -121.537175 126 3343ft 136kts
01-Aug-20 20:02 38.388229 -121.490959 124 4434ft 126kts
01-Aug-20 20:03 38.370556 -121.454285 125 5381ft 119kts
01-Aug-20 20:03 38.355194 -121.423354 125 5971ft 127kts
01-Aug-20 20:05 38.332390 -121.378422 127 6784ft 130kts
01-Aug-20 20:06 38.311593 -121.340190 127 7405ft 138kts
01-Aug-20 20:06 38.291458 -121.304407 128 7415ft 156kts
01-Aug-20 20:07 38.265143 -121.258950 128 7411ft 161kts
01-Aug-20 20:09 38.233758 -121.205538 130 7408ft 162kts
01-Aug-20 20:09 38.211451 -121.167154 133 7412ft 162kts
01-Aug-20 20:10 38.180210 -121.126237 139 7430ft 160kts
01-Aug-20 20:11 38.152445 -121.081465 140 7418ft 161kts
01-Aug-20 20:12 38.116709 -121.047981 141 7438ft 160kts
01-Aug-20 20:13 38.083383 -121.010690 146 7458ft 159kts
01-Aug-20 20:14 38.048462 -120.976683 135 7476ft 160kts
01-Aug-20 20:15 38.013466 -120.944382 150 7473ft 157kts
01-Aug-20 20:16 37.976643 -120.914639 150 7459ft 157kts
01-Aug-20 20:17 37.938699 -120.887355 156 7454ft 156kts
01-Aug-20 20:18 37.900015 -120.862278 154 7450ft 156kts
01-Aug-20 20:19 37.861427 -120.836476 154 7448ft 157kts
01-Aug-20 20:20 37.822886 -120.810273 154 7441ft 158kts
01-Aug-20 20:21 37.784172 -120.783801 154 7431ft 158kts
01-Aug-20 20:22 37.745465 -120.757919 147 7418ft 155kts
01-Aug-20 20:23 37.707903 -120.731730 148 7419ft 154kts
01-Aug-20 20:24 37.670339 -120.705941 148 7419ft 153kts
01-Aug-20 20:25 37.632689 -120.680180 148 7420ft 153kts
01-Aug-20 20:26 37.594884 -120.654043 154 7423ft 156kts
01-Aug-20 20:27 37.556305 -120.627960 154 7425ft 158kts
01-Aug-20 20:28 37.517625 -120.601711 154 7427ft 158kts
01-Aug-20 20:29 37.478877 -120.575379 154 7419ft 159kts
01-Aug-20 20:30 37.439939 -120.548930 154 7420ft 159kts
01-Aug-20 20:31 37.400869 -120.522418 154 7419ft 159kts
01-Aug-20 20:32 37.361922 -120.496021 154 7416ft 159kts
01-Aug-20 20:33 37.322766 -120.469516 154 7414ft 159kts
01-Aug-20 20:34 37.283634 -120.443061 154 7412ft 160kts
01-Aug-20 20:35 37.244428 -120.416590 154 7412ft 160kts
01-Aug-20 20:36 37.206695 -120.387745 120 7397ft 165kts
01-Aug-20 20:37 37.184578 -120.338473 129 7417ft 163kts
01-Aug-20 20:38 37.158065 -120.292629 128 7420ft 162kts
01-Aug-20 20:39 37.131773 -120.246670 128 7425ft 161kts
01-Aug-20 20:40 37.105715 -120.200984 128 7428ft 161kts
01-Aug-20 20:41 37.079506 -120.155049 128 7428ft 162kts
01-Aug-20 20:42 37.053118 -120.108823 127 7428ft 163kts
01-Aug-20 20:43 37.026517 -120.062277 127 7428ft 164kts
01-Aug-20 20:44 36.999777 -120.015560 127 7426ft 165kts
01-Aug-20 20:45 36.972865 -119.968569 126 7427ft 167kts
01-Aug-20 20:46 36.945724 -119.921230 126 7424ft 167kts
01-Aug-20 20:47 36.918599 -119.873951 126 7420ft 168kts
01-Aug-20 20:48 36.891253 -119.826529 126 7416ft 168kts
01-Aug-20 20:49 36.856123 -119.791667 158 7414ft 165kts
01-Aug-20 20:50 36.814121 -119.767637 155 7411ft 166kts
01-Aug-20 20:51 36.773009 -119.742084 154 7410ft 164kts
01-Aug-20 20:52 36.732378 -119.716169 154 7411ft 164kts
01-Aug-20 20:53 36.691934 -119.690176 154 7411ft 163kts
01-Aug-20 20:54 36.651421 -119.664082 154 7411ft 163kts
01-Aug-20 20:55 36.610981 -119.638043 154 7411ft 163kts
01-Aug-20 20:56 36.570569 -119.612048 154 7411ft 163kts
01-Aug-20 20:57 36.530058 -119.586016 154 7411ft 163kts
01-Aug-20 20:58 36.489612 -119.560048 153 7411ft 163kts
01-Aug-20 20:59 36.449182 -119.534123 153 7411ft 163kts
01-Aug-20 21:00 36.408716 -119.508205 153 7411ft 163kts
01-Aug-20 21:01 36.368164 -119.482262 154 7412ft 163kts
01-Aug-20 21:02 36.326302 -119.464026 156 7417ft 162kts
01-Aug-20 21:03 36.284448 -119.442894 162 7414ft 163kts
01-Aug-20 21:04 36.241608 -119.424168 162 7415ft 163kts
01-Aug-20 21:05 36.198917 -119.405528 162 7416ft 162kts
01-Aug-20 21:06 36.156263 -119.386922 162 7416ft 162kts
01-Aug-20 21:07 36.114116 -119.368566 162 7417ft 162kts
01-Aug-20 21:08 36.071340 -119.349955 162 7418ft 163kts
01-Aug-20 21:09 36.028543 -119.331584 162 7417ft 162kts
01-Aug-20 21:10 35.985942 -119.313181 162 7418ft 163kts
01-Aug-20 21:11 35.944149 -119.295090 162 7416ft 163kts
01-Aug-20 21:12 35.901288 -119.276525 161 7415ft 163kts
01-Aug-20 21:13 35.858222 -119.257967 161 7412ft 163kts
01-Aug-20 21:14 35.815313 -119.239435 161 7411ft 163kts
01-Aug-20 21:15 35.772505 -119.220937 161 7411ft 163kts
01-Aug-20 21:16 35.729569 -119.202412 161 7411ft 163kts
01-Aug-20 21:17 35.686682 -119.183934 161 7410ft 163kts
01-Aug-20 21:18 35.643734 -119.165436 161 7411ft 163kts
01-Aug-20 21:19 35.600682 -119.146912 161 7412ft 163kts
01-Aug-20 21:20 35.557699 -119.128443 161 7414ft 164kts
01-Aug-20 21:21 35.514635 -119.109961 162 7417ft 164kts
01-Aug-20 21:22 35.471718 -119.091095 159 7418ft 164kts
01-Aug-20 21:23 35.435691 -119.059791 122 7422ft 165kts
01-Aug-20 21:24 35.411800 -119.011299 120 7420ft 166kts
01-Aug-20 21:25 35.388291 -118.962470 119 7420ft 166kts
01-Aug-20 21:26 35.364798 -118.913689 119 7420ft 166kts
01-Aug-20 21:27 35.341431 -118.865145 119 7420ft 165kts
01-Aug-20 21:28 35.318486 -118.817607 118 7414ft 153kts
01-Aug-20 21:29 35.297879 -118.774825 118 7446ft 140kts
01-Aug-20 21:30 35.278460 -118.734626 118 7489ft 135kts
01-Aug-20 21:31 35.259356 -118.695199 118 7190ft 131kts
01-Aug-20 21:32 35.240993 -118.657205 118 6686ft 128kts
01-Aug-20 21:33 35.222818 -118.619693 119 6183ft 129kts
01-Aug-20 21:34 35.202956 -118.578747 120 5412ft 147kts
01-Aug-20 21:35 35.184370 -118.540296 121 5172ft 116kts
01-Aug-20 21:36 35.167868 -118.505467 132 5102ft 110kts
01-Aug-20 21:37 35.147403 -118.478410 127 5261ft 116kts
01-Aug-20 21:38 35.126055 -118.448136 134 5316ft 115kts
01-Aug-20 21:39 35.105858 -118.419720 66 4946ft 122kts
01-Aug-20 21:40 35.128570 -118.427710 300 4226ft 94kts
01-Aug-20 21:41 35.134167 -118.438959 219 3984ft 5kts
01-Aug-20 21:42 35.133660 -118.439271 341 3983ft 0kts
01-Aug-20 21:43 35.133771 -118.439317 341 3983ft 0kts
01-Aug-20 21:45 35.133884 -118.439363 341 3982ft 0kts
01-Aug-20 21:46 35.133996 -118.439410 341 3982ft 0kts
01-Aug-20 21:47 35.134109 -118.439456 341 3982ft 0kts
01-Aug-20 21:48 35.134222 -118.439503 341 3982ft 0kts
01-Aug-20 21:49 35.134334 -118.439549 341 3982ft 0kts
01-Aug-20 21:50 35.134426 -118.439587 344 3982ft 0kts
01-Aug-20 21:51 35.134426 -118.439587 344 3982ft 0kts
01-Aug-20 21:52 35.134426 -118.439587 344 3982ft 0kts
01-Aug-20 21:53 35.134426 -118.439587 344 3982ft 0kts
01-Aug-20 21:54 35.134426 -118.439587 344 3982ft 0kts
01-Aug-20 21:55 35.134426 -118.439587 344 3982ft 0kts
01-Aug-20 21:56 35.134426 -118.439587 344 3982ft 0kts

Navigation Log

Ident Type
Flight plan parsing failed, navigation log unavailable